createdAt,value
2019-03-18T00:01:49.149Z,0.40
2019-03-18T00:04:52.682Z,0.70
2019-03-18T00:07:56.172Z,0.60
2019-03-18T00:11:00.693Z,0.40
2019-03-18T00:14:05.219Z,0.53
2019-03-18T00:17:09.752Z,0.60
2019-03-18T00:20:15.322Z,0.68
2019-03-18T00:23:18.792Z,0.70
2019-03-18T00:26:23.321Z,0.60
2019-03-18T00:29:27.849Z,0.53
2019-03-18T00:32:31.356Z,0.80
2019-03-18T00:35:34.865Z,0.50
2019-03-18T00:38:39.364Z,0.40
2019-03-18T00:41:43.900Z,0.50
2019-03-18T00:44:47.393Z,0.50
2019-03-18T00:47:50.948Z,0.50
2019-03-18T00:50:54.385Z,0.60
2019-03-18T00:53:57.900Z,0.45
2019-03-18T00:57:01.404Z,0.40
2019-03-18T01:00:05.676Z,0.60
2019-03-18T01:03:09.297Z,0.50
2019-03-18T01:06:12.767Z,0.60
2019-03-18T01:09:17.252Z,1.40
2019-03-18T01:12:22.788Z,0.62
2019-03-18T01:15:28.858Z,0.70
2019-03-18T01:18:32.452Z,0.60
2019-03-18T01:21:37.081Z,0.40
2019-03-18T01:24:40.586Z,0.70
2019-03-18T01:27:44.187Z,0.60
2019-03-18T01:30:47.688Z,0.60
2019-03-18T01:33:51.208Z,0.57
2019-03-18T01:36:54.699Z,0.60
2019-03-18T01:39:58.181Z,0.63
2019-03-18T01:43:01.794Z,0.50
2019-03-18T01:46:05.223Z,0.60
2019-03-18T01:49:08.677Z,0.60
2019-03-18T01:52:12.222Z,0.72
2019-03-18T01:55:15.717Z,0.50
2019-03-18T01:58:19.198Z,0.63
2019-03-18T02:01:22.730Z,0.50
2019-03-18T02:04:26.197Z,0.70
2019-03-18T02:07:29.720Z,0.50
2019-03-18T02:10:34.285Z,0.50
2019-03-18T02:13:37.754Z,0.75
2019-03-18T02:16:41.226Z,0.75
2019-03-18T02:19:44.720Z,0.60
2019-03-18T02:22:48.161Z,0.60
2019-03-18T02:25:51.639Z,0.40
2019-03-18T02:28:55.247Z,0.50
2019-03-18T02:31:59.809Z,0.50
2019-03-18T02:35:03.249Z,0.40
2019-03-18T02:38:06.808Z,0.50
2019-03-18T02:41:10.420Z,0.35
2019-03-18T02:44:14.064Z,0.50
2019-03-18T02:47:17.600Z,1.00
2019-03-18T02:50:22.223Z,0.55
2019-03-18T02:53:26.734Z,0.80
2019-03-18T02:56:30.238Z,0.60
2019-03-18T02:59:33.742Z,0.80
2019-03-18T03:02:37.236Z,0.68
2019-03-18T03:05:40.801Z,0.60
2019-03-18T03:08:44.235Z,0.63
2019-03-18T03:11:47.680Z,0.55
2019-03-18T03:14:51.227Z,0.78
2019-03-18T03:17:54.749Z,0.60
2019-03-18T03:20:58.235Z,0.80
2019-03-18T03:24:01.743Z,0.50
2019-03-18T03:27:05.297Z,0.60
2019-03-18T03:30:09.083Z,0.80
2019-03-18T03:33:12.559Z,1.07
2019-03-18T03:36:16.070Z,0.50
2019-03-18T03:39:19.672Z,0.62
2019-03-18T03:42:23.163Z,0.65
2019-03-18T03:45:26.700Z,0.65
2019-03-18T03:48:31.266Z,0.50
2019-03-18T03:51:34.911Z,0.60
2019-03-18T03:54:38.393Z,0.50
2019-03-18T03:57:41.903Z,0.53
2019-03-18T04:00:46.395Z,0.50
2019-03-18T04:03:49.845Z,0.60
2019-03-18T04:06:53.425Z,0.60
2019-03-18T04:09:56.914Z,0.70
2019-03-18T04:13:00.440Z,0.60
2019-03-18T04:16:04.933Z,0.70
2019-03-18T04:19:08.435Z,0.50
2019-03-18T04:22:15.137Z,0.50
2019-03-18T04:25:18.556Z,0.50
2019-03-18T04:28:22.052Z,0.33
2019-03-18T04:31:28.603Z,0.50
2019-03-18T04:34:32.165Z,0.95
2019-03-18T04:37:35.893Z,0.60
2019-03-18T04:40:39.492Z,0.50
2019-03-18T04:43:42.936Z,0.60
2019-03-18T04:46:46.451Z,1.37
2019-03-18T04:49:49.967Z,0.60
2019-03-18T04:52:53.496Z,0.40
2019-03-18T04:55:56.990Z,0.53
2019-03-18T04:59:05.779Z,0.47
2019-03-18T05:02:09.326Z,0.60
2019-03-18T05:05:12.843Z,0.70
2019-03-18T05:08:16.339Z,0.40
2019-03-18T05:11:19.830Z,0.33
2019-03-18T05:14:23.306Z,0.53
2019-03-18T05:17:27.178Z,0.50
2019-03-18T05:20:30.732Z,0.60
2019-03-18T05:23:35.301Z,0.70
2019-03-18T05:26:38.795Z,0.40
2019-03-18T05:29:42.233Z,0.50
2019-03-18T05:32:45.781Z,0.60
2019-03-18T05:35:49.270Z,0.60
2019-03-18T05:38:52.790Z,0.70
2019-03-18T05:41:56.283Z,0.50
2019-03-18T05:44:59.799Z,0.60
2019-03-18T05:48:04.363Z,0.50
2019-03-18T05:51:07.804Z,0.50
2019-03-18T05:54:11.297Z,0.57
2019-03-18T05:57:14.795Z,0.50
2019-03-18T06:00:18.304Z,0.45
2019-03-18T06:03:21.817Z,0.50
2019-03-18T06:06:25.335Z,0.60
2019-03-18T06:09:29.875Z,0.60
2019-03-18T06:12:34.536Z,0.70
2019-03-18T06:15:39.066Z,0.40
2019-03-18T06:18:43.626Z,0.50
2019-03-18T06:21:47.069Z,0.90
2019-03-18T06:24:50.599Z,0.60
2019-03-18T06:27:56.347Z,0.40
2019-03-18T06:30:59.858Z,0.72
2019-03-18T06:34:04.385Z,0.60
2019-03-18T06:37:07.902Z,0.57
2019-03-18T06:40:11.434Z,0.50
2019-03-18T06:43:15.039Z,0.60
2019-03-18T06:46:18.525Z,0.60
2019-03-18T06:49:22.121Z,0.57
2019-03-18T06:52:25.589Z,0.50
2019-03-18T06:55:29.123Z,0.47
2019-03-18T06:58:32.602Z,0.65
2019-03-18T07:01:36.061Z,0.50
2019-03-18T07:04:39.622Z,0.60
2019-03-18T07:07:43.109Z,0.50
2019-03-18T07:10:46.582Z,0.42
2019-03-18T07:13:52.177Z,0.70
2019-03-18T07:16:55.653Z,0.70
2019-03-18T07:19:59.226Z,0.70
2019-03-18T07:23:02.644Z,0.50
2019-03-18T07:26:06.143Z,0.50
2019-03-18T07:29:10.678Z,1.07
2019-03-18T07:32:15.208Z,0.60
2019-03-18T07:35:18.702Z,0.90
2019-03-18T07:38:22.222Z,0.75
2019-03-18T07:41:25.666Z,1.02
2019-03-18T07:44:30.233Z,1.53
2019-03-18T07:47:33.838Z,0.90
2019-03-18T07:50:37.443Z,2.08
2019-03-18T07:53:41.038Z,1.87
2019-03-18T07:56:44.674Z,0.70
2019-03-18T07:59:49.215Z,0.70
2019-03-18T08:02:54.803Z,0.67
2019-03-18T08:05:58.276Z,0.70
2019-03-18T08:09:04.081Z,0.80
2019-03-18T08:12:08.707Z,1.93
2019-03-18T08:15:14.275Z,0.57
2019-03-18T08:18:17.759Z,0.60
2019-03-18T08:21:22.269Z,0.98
2019-03-18T08:24:25.789Z,1.42
2019-03-18T08:27:29.368Z,2.65
2019-03-18T08:30:32.893Z,0.70
2019-03-18T08:33:36.353Z,0.80
2019-03-18T08:36:39.794Z,0.55
2019-03-18T08:39:43.317Z,0.93
2019-03-18T08:42:46.769Z,2.02
2019-03-18T08:45:50.198Z,1.75
2019-03-18T08:48:56.057Z,1.47
2019-03-18T08:51:58.904Z,1.30
2019-03-18T08:55:02.406Z,1.87
2019-03-18T08:58:05.900Z,0.90
2019-03-18T09:01:11.461Z,0.90
2019-03-18T09:04:15.015Z,0.93
2019-03-18T09:07:18.672Z,2.98
2019-03-18T09:10:24.237Z,2.08
2019-03-18T09:13:27.710Z,4.20
2019-03-18T09:16:32.359Z,2.95
2019-03-18T09:19:35.824Z,2.20
2019-03-18T09:22:42.228Z,2.27
2019-03-18T09:25:49.640Z,2.15
2019-03-18T09:29:01.989Z,3.15
2019-03-18T09:32:05.511Z,2.02
2019-03-18T09:35:09.021Z,1.50
2019-03-18T09:38:12.457Z,2.60
2019-03-18T09:41:16.023Z,2.70
2019-03-18T09:44:19.538Z,3.35
2019-03-18T09:47:23.052Z,1.62
2019-03-18T09:50:26.515Z,1.02
2019-03-18T09:53:30.028Z,2.22
2019-03-18T09:56:34.635Z,1.82
2019-03-18T09:59:38.249Z,2.60
2019-03-18T10:02:41.694Z,0.88
2019-03-18T10:05:45.261Z,3.62
2019-03-18T10:08:48.813Z,4.85
2019-03-18T10:11:53.415Z,2.62
2019-03-18T10:14:56.890Z,2.05
2019-03-18T10:18:01.324Z,4.85
2019-03-18T10:21:04.760Z,2.35
2019-03-18T10:24:08.216Z,2.10
2019-03-18T10:27:11.705Z,1.95
2019-03-18T10:30:15.227Z,2.93
2019-03-18T10:33:18.701Z,7.55
2019-03-18T10:36:22.137Z,3.98
2019-03-18T10:39:25.616Z,4.10
2019-03-18T10:42:29.107Z,0.60
2019-03-18T10:45:32.616Z,4.28
2019-03-18T10:48:36.176Z,1.80
2019-03-18T10:51:39.717Z,2.17
2019-03-18T10:54:43.368Z,1.03
2019-03-18T10:57:46.839Z,0.60
2019-03-18T11:00:50.269Z,1.65
2019-03-18T11:03:53.820Z,1.32
2019-03-18T11:06:57.264Z,2.70
2019-03-18T11:10:00.874Z,1.85
2019-03-18T11:13:04.339Z,2.02
2019-03-18T11:16:07.826Z,0.90
2019-03-18T11:19:11.323Z,1.07
2019-03-18T11:22:14.828Z,0.57
2019-03-18T11:25:18.332Z,0.60
2019-03-18T11:28:21.844Z,1.72
2019-03-18T11:31:25.337Z,3.05
2019-03-18T11:34:29.330Z,5.40
2019-03-18T11:37:32.949Z,2.67
2019-03-18T11:40:37.478Z,4.67
2019-03-18T11:43:40.987Z,11.55
2019-03-18T11:46:44.495Z,5.15
2019-03-18T11:49:48.014Z,6.42
2019-03-18T11:52:51.495Z,5.58
2019-03-18T11:55:54.982Z,6.75
2019-03-18T11:58:58.463Z,6.03
2019-03-18T12:02:02.011Z,3.35
2019-03-18T12:05:07.818Z,3.05
2019-03-18T12:08:11.251Z,4.35
2019-03-18T12:11:15.834Z,1.67
2019-03-18T12:14:19.545Z,2.45
2019-03-18T12:17:23.166Z,2.02
2019-03-18T12:20:26.704Z,3.33
2019-03-18T12:23:31.206Z,2.02
2019-03-18T12:26:34.714Z,1.72
2019-03-18T12:29:38.211Z,4.35
2019-03-18T12:32:41.723Z,1.65
2019-03-18T12:35:45.219Z,1.82
2019-03-18T12:38:48.698Z,2.27
2019-03-18T12:41:52.209Z,0.70
2019-03-18T12:44:55.691Z,1.25
2019-03-18T12:47:59.220Z,1.55
2019-03-18T12:51:02.719Z,1.72
2019-03-18T12:54:08.241Z,2.47
2019-03-18T12:57:11.754Z,2.10
2019-03-18T13:00:18.387Z,1.07
2019-03-18T13:03:22.036Z,1.25
2019-03-18T13:06:25.540Z,6.10
2019-03-18T13:09:29.038Z,1.22
2019-03-18T13:12:32.534Z,0.60
2019-03-18T13:15:36.062Z,1.27
2019-03-18T13:18:40.596Z,0.98
2019-03-18T13:21:44.058Z,2.27
2019-03-18T13:24:47.558Z,0.60
2019-03-18T13:27:51.088Z,1.65
2019-03-18T13:30:54.557Z,0.42
2019-03-18T13:33:58.086Z,2.98
2019-03-18T13:37:01.589Z,2.02
2019-03-18T13:40:06.422Z,2.98
2019-03-18T13:43:10.006Z,2.47
2019-03-18T13:46:13.536Z,2.37
2019-03-18T13:49:17.004Z,3.33
2019-03-18T13:52:20.505Z,3.50
2019-03-18T13:55:24.001Z,3.72
2019-03-18T13:58:27.510Z,3.65
2019-03-18T14:01:31.080Z,4.55
2019-03-18T14:04:34.729Z,2.05
2019-03-18T14:07:38.229Z,2.35
2019-03-18T14:10:41.725Z,1.37
2019-03-18T14:13:45.219Z,2.70
2019-03-18T14:16:48.764Z,2.25
2019-03-18T14:19:52.209Z,1.70
2019-03-18T14:22:56.736Z,2.00
2019-03-18T14:26:00.243Z,1.52
2019-03-18T14:29:03.743Z,2.42
2019-03-18T14:32:08.321Z,2.45
2019-03-18T14:35:11.780Z,2.30
2019-03-18T14:38:15.312Z,0.90
2019-03-18T14:41:18.765Z,1.67
2019-03-18T14:44:22.265Z,1.25
2019-03-18T14:47:25.783Z,3.85
2019-03-18T14:50:29.274Z,0.95
2019-03-18T14:53:32.782Z,1.72
2019-03-18T14:56:36.336Z,2.08
2019-03-18T14:59:39.771Z,1.20
2019-03-18T15:02:43.283Z,0.82
2019-03-18T15:05:46.787Z,2.35
2019-03-18T15:08:51.299Z,0.80
2019-03-18T15:11:54.849Z,2.70
2019-03-18T15:14:59.339Z,1.25
2019-03-18T15:18:02.853Z,1.02
2019-03-18T15:21:06.337Z,0.72
2019-03-18T15:24:16.925Z,3.85
2019-03-18T15:27:15.228Z,2.22
2019-03-18T15:30:19.014Z,2.72
2019-03-18T15:33:23.627Z,2.72
2019-03-18T15:36:27.112Z,4.47
2019-03-18T15:39:30.722Z,4.50
2019-03-18T15:42:35.348Z,2.87
2019-03-18T15:45:38.908Z,2.25
2019-03-18T15:48:42.369Z,2.20
2019-03-18T15:51:45.931Z,1.22
2019-03-18T15:54:54.064Z,1.17
2019-03-18T15:57:54.951Z,3.40
2019-03-18T16:00:58.399Z,2.67
2019-03-18T16:04:02.762Z,1.55
2019-03-18T16:07:06.237Z,1.42
2019-03-18T16:10:10.304Z,2.15
2019-03-18T16:13:13.880Z,1.35
2019-03-18T16:16:17.351Z,3.17
2019-03-18T16:19:20.852Z,2.85
2019-03-18T16:22:25.382Z,1.60
2019-03-18T16:25:28.899Z,1.65
2019-03-18T16:28:33.442Z,2.52
2019-03-18T16:31:37.931Z,3.33
2019-03-18T16:34:41.447Z,1.42
2019-03-18T16:37:45.036Z,2.10
2019-03-18T16:40:48.749Z,1.37
2019-03-18T16:43:52.340Z,3.22
2019-03-18T16:46:55.851Z,4.00
2019-03-18T16:50:00.458Z,3.95
2019-03-18T16:53:03.867Z,2.85
2019-03-18T16:56:07.373Z,1.75
2019-03-18T16:59:13.344Z,1.12
2019-03-18T17:02:16.965Z,2.92
2019-03-18T17:05:21.550Z,1.65
2019-03-18T17:08:25.061Z,1.95
2019-03-18T17:11:28.555Z,2.22
2019-03-18T17:14:35.646Z,15.32
2019-03-18T17:17:39.256Z,20.00
2019-03-18T17:20:42.750Z,25.77
2019-03-18T17:23:46.237Z,28.45
2019-03-18T17:26:49.752Z,24.07
2019-03-18T17:29:54.280Z,20.35
2019-03-18T17:32:57.782Z,18.20
2019-03-18T17:36:03.680Z,23.65
2019-03-18T17:39:08.372Z,18.85
2019-03-18T17:42:11.977Z,19.23
2019-03-18T17:45:15.492Z,17.40
2019-03-18T17:48:20.075Z,18.65
2019-03-18T17:51:23.685Z,13.40
2019-03-18T17:54:27.198Z,15.38
2019-03-18T17:57:30.784Z,14.90
2019-03-18T18:00:37.880Z,16.35
2019-03-18T18:03:41.401Z,12.20
2019-03-18T18:06:44.877Z,12.93
2019-03-18T18:09:48.510Z,13.00
2019-03-18T18:12:52.122Z,10.72
2019-03-18T18:15:55.596Z,10.82
2019-03-18T18:18:59.132Z,11.95
2019-03-18T18:22:02.683Z,9.58
2019-03-18T18:25:07.524Z,8.63
2019-03-18T18:28:11.032Z,10.18
2019-03-18T18:31:14.524Z,10.08
2019-03-18T18:34:18.039Z,9.88
2019-03-18T18:37:21.626Z,9.08
2019-03-18T18:40:25.347Z,10.45
2019-03-18T18:43:28.946Z,9.08
2019-03-18T18:46:32.433Z,9.95
2019-03-18T18:49:36.056Z,11.15
2019-03-18T18:52:39.716Z,8.95
2019-03-18T18:55:43.351Z,7.72
2019-03-18T18:58:46.888Z,8.75
2019-03-18T19:01:50.347Z,9.20
2019-03-18T19:04:53.932Z,6.92
2019-03-18T19:07:57.812Z,7.30
2019-03-18T19:11:01.514Z,6.78
2019-03-18T19:14:06.096Z,6.45
2019-03-18T19:17:09.706Z,6.28
2019-03-18T19:20:13.220Z,7.22
2019-03-18T19:23:16.698Z,6.90
2019-03-18T19:26:21.321Z,7.15
2019-03-18T19:29:24.936Z,4.90
2019-03-18T19:32:28.427Z,5.15
2019-03-18T19:35:31.964Z,7.87
2019-03-18T19:38:35.460Z,5.30
2019-03-18T19:41:40.203Z,6.97
2019-03-18T19:44:43.895Z,9.55
2019-03-18T19:47:47.477Z,7.12
2019-03-18T19:50:52.107Z,8.28
2019-03-18T19:53:56.647Z,4.65
2019-03-18T19:57:00.126Z,5.08
2019-03-18T20:00:04.209Z,6.33
2019-03-18T20:03:08.772Z,8.00
2019-03-18T20:06:12.384Z,5.22
2019-03-18T20:09:16.115Z,7.30
2019-03-18T20:12:19.812Z,6.65
2019-03-18T20:15:23.408Z,7.97
2019-03-18T20:18:27.913Z,8.43
2019-03-18T20:21:31.445Z,4.00
2019-03-18T20:24:34.944Z,8.43
2019-03-18T20:27:38.431Z,5.97
2019-03-18T20:30:41.933Z,5.17
2019-03-18T20:33:46.464Z,4.75
2019-03-18T20:36:50.971Z,5.87
2019-03-18T20:39:54.583Z,2.92
2019-03-18T20:42:58.278Z,3.75
2019-03-18T20:46:02.918Z,6.78
2019-03-18T20:49:06.470Z,4.30
2019-03-18T20:52:16.834Z,2.67
2019-03-18T20:55:17.309Z,3.75
2019-03-18T20:58:20.794Z,3.12
2019-03-18T21:01:24.323Z,4.62
2019-03-18T21:04:27.823Z,2.75
2019-03-18T21:07:31.307Z,3.92
2019-03-18T21:10:34.815Z,3.42
2019-03-18T21:13:38.274Z,3.37
2019-03-18T21:16:41.837Z,4.90
2019-03-18T21:19:47.386Z,5.45
2019-03-18T21:22:51.975Z,4.80
2019-03-18T21:25:55.634Z,5.37
2019-03-18T21:28:59.102Z,8.20
2019-03-18T21:32:02.589Z,2.52
2019-03-18T21:35:06.391Z,5.03
2019-03-18T21:38:09.992Z,2.90
2019-03-18T21:41:13.518Z,4.28
2019-03-18T21:44:17.100Z,2.62
2019-03-18T21:47:20.751Z,2.83
2019-03-18T21:50:24.215Z,2.98
2019-03-18T21:53:27.802Z,1.95
2019-03-18T21:56:32.440Z,2.72
2019-03-18T21:59:35.962Z,3.02
2019-03-18T22:02:40.467Z,2.30
2019-03-18T22:05:45.045Z,3.12
2019-03-18T22:08:48.642Z,3.33
2019-03-18T22:11:52.221Z,2.42
2019-03-18T22:14:55.712Z,2.87
2019-03-18T22:18:00.217Z,2.20
2019-03-18T22:21:03.774Z,1.87
2019-03-18T22:24:09.268Z,1.45
2019-03-18T22:27:14.809Z,2.30
2019-03-18T22:30:18.343Z,1.70
2019-03-18T22:33:21.817Z,2.12
2019-03-18T22:36:28.405Z,1.47
2019-03-18T22:39:31.898Z,1.72
2019-03-18T22:42:35.509Z,2.00
2019-03-18T22:45:39.115Z,2.45
2019-03-18T22:48:42.610Z,2.52
2019-03-18T22:51:46.166Z,2.62
2019-03-18T22:54:55.942Z,2.80
2019-03-18T22:57:55.157Z,1.60
2019-03-18T23:01:10.090Z,1.82
2019-03-18T23:04:14.639Z,1.37
2019-03-18T23:07:18.154Z,2.20
2019-03-18T23:10:21.649Z,2.15
2019-03-18T23:13:25.241Z,2.77
2019-03-18T23:16:28.862Z,2.25
2019-03-18T23:19:32.381Z,1.22
2019-03-18T23:22:35.894Z,1.95
2019-03-18T23:25:39.367Z,1.52
2019-03-18T23:28:42.846Z,1.37
2019-03-18T23:31:46.385Z,1.87
2019-03-18T23:34:49.864Z,1.57
2019-03-18T23:37:53.367Z,1.20
2019-03-18T23:40:57.880Z,1.50
2019-03-18T23:44:01.489Z,1.40
2019-03-18T23:47:05.107Z,1.60
2019-03-18T23:50:08.883Z,1.52
2019-03-18T23:53:12.509Z,1.65
2019-03-18T23:56:16.004Z,1.92
2019-03-18T23:59:19.502Z,1.75
